createdAt,value
2018-09-03T00:00:16.527Z,15.88
2018-09-03T00:02:49.678Z,16.06
2018-09-03T00:05:22.696Z,15.92
2018-09-03T00:07:55.875Z,15.93
2018-09-03T00:10:28.990Z,15.88
2018-09-03T00:13:02.092Z,15.87
2018-09-03T00:15:35.092Z,15.91
2018-09-03T00:18:08.274Z,15.94
2018-09-03T00:20:41.583Z,15.91
2018-09-03T00:23:14.527Z,15.89
2018-09-03T00:25:47.735Z,15.97
2018-09-03T00:28:20.824Z,15.93
2018-09-03T00:31:13.608Z,15.91
2018-09-03T00:33:52.276Z,15.91
2018-09-03T00:36:47.959Z,15.87
2018-09-03T00:39:27.051Z,15.95
2018-09-03T00:42:05.863Z,15.95
2018-09-03T00:44:44.734Z,15.99
2018-09-03T00:47:17.835Z,16.01
2018-09-03T00:49:51.058Z,16.01
2018-09-03T00:52:24.159Z,16.07
2018-09-03T00:54:57.155Z,16.10
2018-09-03T00:57:30.159Z,16.33
2018-09-03T01:00:03.288Z,16.28
2018-09-03T01:02:36.491Z,16.34
2018-09-03T01:05:09.587Z,16.29
2018-09-03T01:07:42.560Z,16.22
2018-09-03T01:10:17.668Z,16.27
2018-09-03T01:12:50.652Z,16.16
2018-09-03T01:15:23.764Z,16.17
2018-09-03T01:17:57.847Z,16.25
2018-09-03T01:20:31.641Z,16.23
2018-09-03T01:23:04.659Z,16.27
2018-09-03T01:25:37.603Z,16.21
2018-09-03T01:28:10.549Z,16.16
2018-09-03T01:30:43.676Z,16.24
2018-09-03T01:33:16.711Z,16.21
2018-09-03T01:35:49.720Z,16.23
2018-09-03T01:38:22.864Z,16.23
2018-09-03T01:40:56.551Z,16.25
2018-09-03T01:43:29.584Z,16.28
2018-09-03T01:46:02.719Z,16.31
2018-09-03T01:48:35.670Z,16.38
2018-09-03T01:51:08.695Z,16.52
2018-09-03T01:53:41.767Z,16.41
2018-09-03T01:56:14.703Z,16.35
2018-09-03T01:58:47.805Z,16.29
2018-09-03T02:01:20.897Z,16.32
2018-09-03T02:03:53.919Z,16.32
2018-09-03T02:06:27.107Z,16.30
2018-09-03T02:09:00.186Z,16.20
2018-09-03T02:11:33.388Z,16.20
2018-09-03T02:14:06.632Z,16.15
2018-09-03T02:16:39.898Z,16.20
2018-09-03T02:19:13.021Z,16.14
2018-09-03T02:21:46.139Z,16.08
2018-09-03T02:24:19.220Z,16.16
2018-09-03T02:26:52.215Z,16.06
2018-09-03T02:29:25.421Z,16.16
2018-09-03T02:31:58.591Z,16.15
2018-09-03T02:34:31.624Z,16.16
2018-09-03T02:37:04.780Z,16.21
2018-09-03T02:39:37.824Z,16.14
2018-09-03T02:42:10.988Z,16.06
2018-09-03T02:47:17.031Z,16.09
2018-09-03T02:49:50.147Z,16.19
2018-09-03T02:52:23.141Z,16.22
2018-09-03T02:54:56.247Z,16.26
2018-09-03T02:57:30.250Z,16.28
2018-09-03T03:00:03.483Z,16.23
2018-09-03T03:02:36.567Z,16.25
2018-09-03T03:05:09.596Z,16.25
2018-09-03T03:07:42.636Z,16.18
2018-09-03T03:10:15.943Z,16.14
2018-09-03T03:12:49.176Z,16.14
2018-09-03T03:15:22.376Z,16.17
2018-09-03T03:17:55.418Z,16.17
2018-09-03T03:20:28.360Z,16.21
2018-09-03T03:23:01.491Z,16.25
2018-09-03T03:25:34.593Z,16.15
2018-09-03T03:28:07.683Z,16.07
2018-09-03T03:30:41.346Z,16.07
2018-09-03T03:33:14.387Z,16.08
2018-09-03T03:35:47.428Z,16.20
2018-09-03T03:38:20.400Z,16.30
2018-09-03T03:40:53.491Z,16.57
2018-09-03T03:43:26.512Z,16.75
2018-09-03T03:45:59.687Z,16.43
2018-09-03T03:48:32.865Z,16.42
2018-09-03T03:51:05.824Z,16.46
2018-09-03T03:53:38.928Z,16.70
2018-09-03T03:56:11.923Z,16.59
2018-09-03T03:58:44.999Z,16.53
2018-09-03T04:01:18.107Z,16.46
2018-09-03T04:03:51.099Z,16.55
2018-09-03T04:06:25.317Z,16.56
2018-09-03T04:08:58.623Z,16.60
2018-09-03T04:11:31.635Z,16.46
2018-09-03T04:14:04.639Z,16.50
2018-09-03T04:16:37.739Z,16.46
2018-09-03T04:19:10.866Z,16.38
2018-09-03T04:21:44.053Z,16.33
2018-09-03T04:24:17.059Z,16.33
2018-09-03T04:26:50.392Z,16.41
2018-09-03T04:29:23.483Z,16.72
2018-09-03T04:31:56.656Z,16.54
2018-09-03T04:34:29.659Z,16.43
2018-09-03T04:37:02.793Z,16.44
2018-09-03T04:39:36.884Z,16.48
2018-09-03T04:42:09.968Z,16.38
2018-09-03T04:44:43.095Z,16.31
2018-09-03T04:47:18.253Z,16.74
2018-09-03T04:49:51.347Z,16.38
2018-09-03T04:52:24.504Z,16.29
2018-09-03T04:54:57.559Z,16.35
2018-09-03T04:57:30.513Z,16.21
2018-09-03T05:00:03.847Z,16.53
2018-09-03T05:02:36.952Z,16.24
2018-09-03T05:05:10.124Z,16.08
2018-09-03T05:07:43.183Z,16.06
2018-09-03T05:10:17.335Z,16.03
2018-09-03T05:12:50.420Z,16.04
2018-09-03T05:15:23.589Z,16.18
2018-09-03T05:17:56.484Z,16.07
2018-09-03T05:20:30.600Z,15.99
2018-09-03T05:23:03.687Z,15.90
2018-09-03T05:25:36.739Z,15.89
2018-09-03T05:28:09.883Z,15.95
2018-09-03T05:30:43.031Z,15.97
2018-09-03T05:33:16.203Z,15.95
2018-09-03T05:35:49.194Z,15.92
2018-09-03T05:38:22.502Z,15.91
2018-09-03T05:43:29.308Z,15.85
2018-09-03T05:46:02.334Z,15.91
2018-09-03T05:48:36.381Z,15.91
2018-09-03T05:51:09.579Z,15.91
2018-09-03T05:53:42.687Z,15.92
2018-09-03T05:56:15.808Z,15.91
2018-09-03T05:58:50.028Z,15.99
2018-09-03T06:01:23.007Z,15.92
2018-09-03T06:03:56.108Z,15.98
2018-09-03T06:06:29.235Z,16.02
2018-09-03T06:09:02.263Z,16.03
2018-09-03T06:11:35.352Z,16.10
2018-09-03T06:14:08.619Z,16.11
2018-09-03T06:16:41.627Z,16.20
2018-09-03T06:19:14.766Z,16.12
2018-09-03T06:21:47.828Z,16.21
2018-09-03T06:24:20.923Z,16.23
2018-09-03T06:26:54.151Z,16.18
2018-09-03T06:29:27.342Z,16.29
2018-09-03T06:32:00.332Z,16.25
2018-09-03T06:34:34.463Z,16.28
2018-09-03T06:37:07.576Z,16.39
2018-09-03T06:39:34.527Z,16.48
2018-09-03T06:42:06.051Z,16.37
2018-09-03T06:44:33.062Z,16.42
2018-09-03T06:47:00.017Z,16.39
2018-09-03T06:49:26.980Z,16.37
2018-09-03T06:51:53.924Z,16.47
2018-09-03T06:54:20.900Z,16.51
2018-09-03T06:56:47.903Z,16.47
2018-09-03T06:59:14.896Z,16.46
2018-09-03T07:01:42.486Z,16.55
2018-09-03T07:04:09.443Z,16.62
2018-09-03T07:06:36.388Z,16.70
2018-09-03T07:09:06.795Z,16.75
2018-09-03T07:11:33.797Z,16.83
2018-09-03T07:14:01.755Z,16.88
2018-09-03T07:16:28.766Z,17.01
2018-09-03T07:18:55.692Z,17.07
2018-09-03T07:21:22.763Z,17.07
2018-09-03T07:23:49.709Z,17.13
2018-09-03T07:26:16.627Z,17.24
2018-09-03T07:28:44.576Z,17.27
2018-09-03T07:31:11.482Z,17.38
2018-09-03T07:33:38.437Z,17.44
2018-09-03T07:36:05.403Z,17.53
2018-09-03T07:38:32.365Z,17.55
2018-09-03T07:40:59.339Z,17.62
2018-09-03T07:43:26.283Z,17.76
2018-09-03T07:45:53.192Z,17.82
2018-09-03T07:48:21.134Z,17.86
2018-09-03T07:50:48.097Z,17.83
2018-09-03T07:53:15.051Z,17.80
2018-09-03T07:55:42.052Z,17.94
2018-09-03T07:58:09.128Z,18.10
2018-09-03T08:00:38.159Z,18.12
2018-09-03T08:03:06.040Z,18.16
2018-09-03T08:05:32.997Z,18.10
2018-09-03T08:08:00.531Z,18.07
2018-09-03T08:10:28.050Z,17.94
2018-09-03T08:12:55.063Z,17.93
2018-09-03T08:15:21.995Z,18.00
2018-09-03T08:17:48.876Z,17.89
2018-09-03T08:20:15.863Z,17.92
2018-09-03T08:22:42.833Z,17.72
2018-09-03T08:25:11.612Z,17.82
2018-09-03T08:27:38.547Z,17.72
2018-09-03T08:30:06.308Z,17.75
2018-09-03T08:32:33.206Z,17.92
2018-09-03T08:35:00.187Z,18.10
2018-09-03T08:37:27.155Z,18.28
2018-09-03T08:39:54.092Z,18.35
2018-09-03T08:42:21.079Z,18.35
2018-09-03T08:44:48.068Z,18.51
2018-09-03T08:47:14.973Z,18.49
2018-09-03T08:49:42.004Z,18.46
2018-09-03T08:52:09.992Z,18.53
2018-09-03T08:54:36.967Z,18.65
2018-09-03T08:57:04.591Z,18.54
2018-09-03T08:59:31.600Z,18.65
2018-09-03T09:01:58.471Z,18.62
2018-09-03T09:04:28.699Z,18.61
2018-09-03T09:06:55.611Z,18.57
2018-09-03T09:09:26.091Z,18.61
2018-09-03T09:11:53.089Z,18.85
2018-09-03T09:14:19.980Z,19.09
2018-09-03T09:16:46.936Z,19.34
2018-09-03T09:19:14.611Z,19.53
2018-09-03T09:21:41.536Z,19.56
2018-09-03T09:24:09.447Z,19.71
2018-09-03T09:26:42.268Z,19.78
2018-09-03T09:29:11.039Z,19.83
2018-09-03T09:31:39.635Z,20.09
2018-09-03T09:34:06.580Z,19.88
2018-09-03T09:36:35.110Z,19.81
2018-09-03T09:39:02.099Z,20.21
2018-09-03T09:41:32.272Z,20.94
2018-09-03T09:44:01.044Z,21.28
2018-09-03T09:46:29.861Z,21.85
2018-09-03T09:48:56.751Z,21.83
2018-09-03T09:51:24.619Z,22.17
2018-09-03T09:53:51.571Z,22.20
2018-09-03T09:56:18.560Z,22.95
2018-09-03T09:58:45.488Z,22.90
2018-09-03T10:01:18.847Z,22.50
2018-09-03T10:03:45.723Z,22.17
2018-09-03T10:06:12.715Z,22.40
2018-09-03T10:08:39.655Z,22.38
2018-09-03T10:11:06.623Z,22.67
2018-09-03T10:13:33.607Z,23.00
2018-09-03T10:16:00.551Z,23.33
2018-09-03T10:18:27.500Z,23.13
2018-09-03T10:20:54.550Z,23.36
2018-09-03T10:23:21.428Z,23.34
2018-09-03T10:25:48.379Z,23.51
2018-09-03T10:28:15.365Z,23.81
2018-09-03T10:30:42.267Z,22.94
2018-09-03T10:33:09.244Z,22.41
2018-09-03T10:35:37.247Z,22.36
2018-09-03T10:38:06.170Z,22.09
2018-09-03T10:40:33.063Z,22.11
2018-09-03T10:43:00.720Z,21.59
2018-09-03T10:45:27.720Z,22.19
2018-09-03T10:47:54.675Z,22.56
2018-09-03T10:50:21.643Z,22.17
2018-09-03T10:52:48.579Z,22.11
2018-09-03T10:55:15.571Z,22.40
2018-09-03T10:57:43.529Z,22.39
2018-09-03T11:00:10.496Z,22.43
2018-09-03T11:02:37.471Z,22.76
2018-09-03T11:05:04.439Z,22.92
2018-09-03T11:07:31.357Z,22.51
2018-09-03T11:09:58.322Z,21.94
2018-09-03T11:12:25.302Z,22.19
2018-09-03T11:14:52.247Z,22.34
2018-09-03T11:17:19.187Z,22.51
2018-09-03T11:19:56.676Z,22.51
2018-09-03T11:22:23.664Z,22.43
2018-09-03T11:24:50.790Z,23.10
2018-09-03T11:27:17.775Z,24.30
2018-09-03T11:29:44.843Z,24.87
2018-09-03T11:32:11.791Z,24.16
2018-09-03T11:34:38.708Z,24.49
2018-09-03T11:37:05.951Z,24.37
2018-09-03T11:39:32.889Z,23.79
2018-09-03T11:41:59.859Z,24.12
2018-09-03T11:44:26.836Z,24.09
2018-09-03T11:46:54.690Z,23.74
2018-09-03T11:49:21.646Z,23.67
2018-09-03T11:51:48.594Z,24.08
2018-09-03T11:54:15.511Z,23.81
2018-09-03T11:56:45.255Z,23.81
2018-09-03T11:59:12.209Z,23.83
2018-09-03T12:01:39.675Z,23.36
2018-09-03T12:04:06.610Z,22.85
2018-09-03T12:06:33.606Z,22.49
2018-09-03T12:09:00.553Z,22.21
2018-09-03T12:11:27.555Z,22.19
2018-09-03T12:13:54.503Z,22.22
2018-09-03T12:16:24.371Z,22.03
2018-09-03T12:18:52.559Z,22.01
2018-09-03T12:21:19.588Z,22.02
2018-09-03T12:23:46.490Z,22.21
2018-09-03T12:26:13.503Z,22.45
2018-09-03T12:28:40.515Z,22.50
2018-09-03T12:31:07.984Z,22.55
2018-09-03T12:33:34.962Z,22.55
2018-09-03T12:36:02.395Z,22.90
2018-09-03T12:38:29.385Z,23.28
2018-09-03T12:40:56.327Z,23.48
2018-09-03T12:43:23.314Z,23.19
2018-09-03T12:45:56.159Z,22.96
2018-09-03T12:48:23.103Z,23.26
2018-09-03T12:50:50.280Z,23.53
2018-09-03T12:53:17.269Z,23.32
2018-09-03T12:55:44.323Z,23.51
2018-09-03T12:58:11.255Z,23.56
2018-09-03T13:00:38.672Z,23.47
2018-09-03T13:03:05.236Z,23.44
2018-09-03T13:05:32.148Z,23.79
2018-09-03T13:07:59.111Z,24.44
2018-09-03T13:10:26.063Z,24.72
2018-09-03T13:12:53.088Z,24.87
2018-09-03T13:15:20.017Z,24.87
2018-09-03T13:17:46.975Z,24.91
2018-09-03T13:20:13.878Z,25.50
2018-09-03T13:22:41.121Z,25.31
2018-09-03T13:25:08.107Z,25.14
2018-09-03T13:27:35.107Z,24.88
2018-09-03T13:30:02.051Z,25.55
2018-09-03T13:32:29.083Z,26.17
2018-09-03T13:34:56.183Z,26.39
2018-09-03T13:37:23.125Z,26.40
2018-09-03T13:39:50.088Z,26.25
2018-09-03T13:42:17.061Z,26.40
2018-09-03T13:44:44.177Z,26.52
2018-09-03T13:47:11.036Z,26.51
2018-09-03T13:49:38.046Z,25.73
2018-09-03T13:52:05.282Z,25.63
2018-09-03T13:54:32.191Z,25.95
2018-09-03T13:56:59.194Z,25.53
2018-09-03T13:59:26.164Z,25.96
2018-09-03T14:01:53.134Z,25.26
2018-09-03T14:04:20.071Z,25.37
2018-09-03T14:06:47.021Z,25.58
2018-09-03T14:09:14.062Z,25.80
2018-09-03T14:11:41.157Z,25.81
2018-09-03T14:14:08.075Z,25.99
2018-09-03T14:16:35.039Z,25.52
2018-09-03T14:19:02.099Z,25.44
2018-09-03T14:21:29.051Z,25.53
2018-09-03T14:23:56.038Z,25.44
2018-09-03T14:26:24.032Z,25.63
2018-09-03T14:28:51.045Z,25.92
2018-09-03T14:31:18.237Z,25.89
2018-09-03T14:33:45.195Z,25.87
2018-09-03T14:36:12.153Z,26.08
2018-09-03T14:38:39.204Z,26.18
2018-09-03T14:41:06.320Z,26.65
2018-09-03T14:43:33.334Z,26.33
2018-09-03T14:46:00.320Z,26.29
2018-09-03T14:48:27.307Z,26.29
2018-09-03T14:50:54.285Z,26.47
2018-09-03T14:53:22.628Z,26.48
2018-09-03T14:55:49.558Z,26.13
2018-09-03T14:58:16.484Z,25.80
2018-09-03T15:00:43.514Z,25.93
2018-09-03T15:03:10.568Z,26.34
2018-09-03T15:05:37.466Z,26.35
2018-09-03T15:08:04.633Z,26.12
2018-09-03T15:10:32.302Z,25.56
2018-09-03T15:12:59.263Z,25.59
2018-09-03T15:15:26.260Z,25.27
2018-09-03T15:17:53.150Z,25.60
2018-09-03T15:20:20.131Z,25.92
2018-09-03T15:22:47.100Z,25.72
2018-09-03T15:25:14.876Z,25.43
2018-09-03T15:27:42.025Z,25.43
2018-09-03T15:30:08.992Z,25.26
2018-09-03T15:32:36.007Z,25.50
2018-09-03T15:35:03.039Z,25.49
2018-09-03T15:37:29.983Z,25.89
2018-09-03T15:39:57.839Z,26.16
2018-09-03T15:42:24.809Z,26.16
2018-09-03T15:44:51.854Z,26.12
2018-09-03T15:47:19.862Z,26.10
2018-09-03T15:49:46.775Z,25.72
2018-09-03T15:52:13.748Z,25.63
2018-09-03T15:54:40.720Z,25.45
2018-09-03T15:57:07.671Z,25.23
2018-09-03T15:59:34.619Z,24.79
2018-09-03T16:02:01.579Z,24.57
2018-09-03T16:04:28.547Z,24.54
2018-09-03T16:06:55.501Z,24.69
2018-09-03T16:09:22.477Z,24.55
2018-09-03T16:11:49.396Z,24.69
2018-09-03T16:14:16.379Z,24.70
2018-09-03T16:16:43.348Z,24.40
2018-09-03T16:19:10.289Z,24.35
2018-09-03T16:21:37.223Z,24.12
2018-09-03T16:24:04.336Z,24.10
2018-09-03T16:26:31.312Z,24.30
2018-09-03T16:28:58.270Z,24.45
2018-09-03T16:31:25.191Z,24.67
2018-09-03T16:33:52.205Z,24.48
2018-09-03T16:36:19.225Z,24.63
2018-09-03T16:38:46.224Z,24.56
2018-09-03T16:41:13.107Z,24.48
2018-09-03T16:43:40.044Z,24.51
2018-09-03T16:46:07.015Z,24.63
2018-09-03T16:48:33.996Z,24.52
2018-09-03T16:51:01.309Z,24.42
2018-09-03T16:53:28.227Z,24.42
2018-09-03T16:55:55.248Z,24.43
2018-09-03T16:58:22.281Z,24.22
2018-09-03T17:00:49.199Z,23.93
2018-09-03T17:03:16.132Z,23.96
2018-09-03T17:05:43.101Z,24.09
2018-09-03T17:08:10.282Z,23.94
2018-09-03T17:10:37.133Z,24.05
2018-09-03T17:13:04.075Z,24.07
2018-09-03T17:15:31.019Z,24.07
2018-09-03T17:17:57.978Z,23.76
2018-09-03T17:20:24.969Z,23.98
2018-09-03T17:22:51.918Z,23.91
2018-09-03T17:25:18.863Z,23.98
2018-09-03T17:27:45.831Z,23.91
2018-09-03T17:30:12.825Z,23.35
2018-09-03T17:32:39.842Z,23.45
2018-09-03T17:35:06.787Z,23.33
2018-09-03T17:37:33.716Z,23.25
2018-09-03T17:40:00.616Z,23.16
2018-09-03T17:42:27.576Z,23.07
2018-09-03T17:44:54.546Z,23.17
2018-09-03T17:47:21.480Z,23.28
2018-09-03T17:49:48.546Z,23.00
2018-09-03T17:52:15.363Z,23.03
2018-09-03T17:54:42.347Z,22.92
2018-09-03T17:57:09.347Z,22.69
2018-09-03T17:59:36.287Z,22.31
2018-09-03T18:02:03.272Z,22.10
2018-09-03T18:04:30.179Z,22.05
2018-09-03T18:06:57.157Z,22.11
2018-09-03T18:09:24.087Z,22.05
2018-09-03T18:11:51.096Z,22.10
2018-09-03T18:14:18.019Z,22.07
2018-09-03T18:16:44.965Z,21.94
2018-09-03T18:19:12.020Z,22.03
2018-09-03T18:21:39.009Z,21.72
2018-09-03T18:24:05.929Z,21.59
2018-09-03T18:26:32.875Z,21.64
2018-09-03T18:28:59.879Z,21.35
2018-09-03T18:31:26.779Z,21.30
2018-09-03T18:33:53.788Z,21.44
2018-09-03T18:36:20.745Z,21.53
2018-09-03T18:38:47.713Z,21.66
2018-09-03T18:41:14.650Z,21.68
2018-09-03T18:43:41.515Z,21.58
2018-09-03T18:46:08.471Z,21.42
2018-09-03T18:48:35.420Z,21.59
2018-09-03T18:51:02.406Z,21.66
2018-09-03T18:53:29.396Z,21.37
2018-09-03T18:55:56.251Z,21.50
2018-09-03T18:58:23.231Z,21.59
2018-09-03T19:00:50.205Z,21.51
2018-09-03T19:03:17.239Z,21.11
2018-09-03T19:05:44.223Z,21.11
2018-09-03T19:08:11.128Z,21.12
2018-09-03T19:10:38.951Z,20.82
2018-09-03T19:13:05.908Z,21.17
2018-09-03T19:15:32.887Z,20.95
2018-09-03T19:17:59.795Z,20.86
2018-09-03T19:20:26.748Z,20.92
2018-09-03T19:22:53.670Z,20.89
2018-09-03T19:25:20.628Z,20.74
2018-09-03T19:27:47.570Z,20.75
2018-09-03T19:30:14.521Z,20.74
2018-09-03T19:32:41.525Z,20.68
2018-09-03T19:35:08.523Z,20.67
2018-09-03T19:37:35.532Z,20.64
2018-09-03T19:40:02.455Z,20.52
2018-09-03T19:42:29.399Z,20.39
2018-09-03T19:44:56.343Z,20.48
2018-09-03T19:47:23.300Z,20.60
2018-09-03T19:49:50.271Z,20.75
2018-09-03T19:52:17.191Z,21.09
2018-09-03T19:54:44.176Z,21.16
2018-09-03T19:57:11.134Z,21.24
2018-09-03T19:59:38.120Z,21.19
2018-09-03T20:02:05.145Z,20.95
2018-09-03T20:04:32.120Z,20.67
2018-09-03T20:06:59.042Z,20.71
2018-09-03T20:09:26.071Z,20.87
2018-09-03T20:11:52.988Z,21.48
2018-09-03T20:14:19.956Z,20.98
2018-09-03T20:16:46.891Z,20.90
2018-09-03T20:19:13.855Z,20.78
2018-09-03T20:21:40.875Z,20.55
2018-09-03T20:24:08.491Z,20.33
2018-09-03T20:26:35.462Z,20.43
2018-09-03T20:29:02.403Z,20.34
2018-09-03T20:31:29.392Z,20.31
2018-09-03T20:33:56.392Z,20.30
2018-09-03T20:36:23.409Z,20.27
2018-09-03T20:38:50.231Z,20.40
2018-09-03T20:41:17.199Z,21.11
2018-09-03T20:43:44.131Z,20.82
2018-09-03T20:46:12.105Z,20.55
2018-09-03T20:48:39.056Z,20.53
2018-09-03T20:51:06.245Z,20.41
2018-09-03T20:53:34.019Z,20.38
2018-09-03T20:56:01.091Z,20.34
2018-09-03T20:58:28.039Z,20.42
2018-09-03T21:00:55.035Z,20.40
2018-09-03T21:03:21.965Z,20.33
2018-09-03T21:05:49.990Z,20.90
2018-09-03T21:08:17.021Z,20.43
2018-09-03T21:10:45.001Z,20.27
2018-09-03T21:13:11.954Z,20.30
2018-09-03T21:15:38.909Z,20.40
2018-09-03T21:18:05.867Z,20.38
2018-09-03T21:20:32.799Z,20.37
2018-09-03T21:22:59.775Z,20.26
2018-09-03T21:25:26.731Z,20.28
2018-09-03T21:27:53.700Z,20.28
2018-09-03T21:30:20.603Z,20.34
2018-09-03T21:32:47.674Z,20.26
2018-09-03T21:35:15.575Z,20.27
2018-09-03T21:37:42.524Z,20.15
2018-09-03T21:40:09.484Z,20.23
2018-09-03T21:42:36.439Z,20.18
2018-09-03T21:45:03.458Z,20.18
2018-09-03T21:47:33.475Z,20.16
2018-09-03T21:50:00.428Z,20.07
2018-09-03T21:52:27.310Z,20.02
2018-09-03T21:54:54.331Z,19.94
2018-09-03T21:57:21.263Z,19.97
2018-09-03T21:59:50.263Z,19.88
2018-09-03T22:02:17.223Z,19.83
2018-09-03T22:04:44.195Z,19.81
2018-09-03T22:07:11.554Z,19.86
2018-09-03T22:09:38.507Z,19.92
2018-09-03T22:12:05.605Z,19.86
2018-09-03T22:14:33.060Z,19.76
2018-09-03T22:17:00.000Z,19.76
2018-09-03T22:19:26.947Z,19.74
2018-09-03T22:21:53.914Z,19.73
2018-09-03T22:24:20.841Z,19.67
2018-09-03T22:26:47.807Z,19.64
2018-09-03T22:29:14.783Z,19.64
2018-09-03T22:31:41.788Z,19.55
2018-09-03T22:34:08.696Z,19.48
2018-09-03T22:36:36.691Z,19.36
2018-09-03T22:39:04.495Z,19.40
2018-09-03T22:41:31.416Z,19.33
2018-09-03T22:43:58.368Z,19.30
2018-09-03T22:46:25.336Z,19.13
2018-09-03T22:48:52.471Z,19.46
2018-09-03T22:51:19.535Z,19.17
2018-09-03T22:53:46.511Z,19.02
2018-09-03T22:56:13.472Z,18.96
2018-09-03T22:58:40.401Z,19.04
2018-09-03T23:01:07.411Z,18.95
2018-09-03T23:03:34.380Z,19.09
2018-09-03T23:06:01.311Z,19.19
2018-09-03T23:08:28.291Z,18.98
2018-09-03T23:10:55.219Z,18.99
2018-09-03T23:13:23.095Z,18.87
2018-09-03T23:15:52.798Z,18.75
2018-09-03T23:18:20.471Z,18.78
2018-09-03T23:20:47.499Z,18.75
2018-09-03T23:23:14.425Z,18.85
2018-09-03T23:25:41.393Z,18.85
2018-09-03T23:28:08.330Z,18.67
2018-09-03T23:30:35.312Z,18.56
2018-09-03T23:33:03.151Z,18.52
2018-09-03T23:35:30.135Z,18.56
2018-09-03T23:37:57.079Z,18.52
2018-09-03T23:40:24.023Z,18.47
2018-09-03T23:42:50.875Z,18.51
2018-09-03T23:45:17.851Z,18.57
2018-09-03T23:47:44.764Z,18.44
2018-09-03T23:50:11.800Z,18.26
2018-09-03T23:52:38.675Z,18.45
2018-09-03T23:55:05.858Z,18.43
2018-09-03T23:57:32.831Z,18.44
2018-09-03T23:59:59.783Z,18.43
